sensor_id;sensor_type;location;lat;lon;timestamp;P1;durP1;ratioP1;P2;durP2;ratioP2
79790;SDS011;69278;52.220;5.172;2023-04-25T00:02:13;10.35;;;2.80;;
79790;SDS011;69278;52.220;5.172;2023-04-25T00:04:39;14.05;;;3.30;;
79790;SDS011;69278;52.220;5.172;2023-04-25T00:07:06;14.70;;;3.10;;
79790;SDS011;69278;52.220;5.172;2023-04-25T00:09:33;14.17;;;3.30;;
79790;SDS011;69278;52.220;5.172;2023-04-25T00:11:59;14.63;;;3.38;;
79790;SDS011;69278;52.220;5.172;2023-04-25T00:14:28;9.93;;;3.00;;
79790;SDS011;69278;52.220;5.172;2023-04-25T00:16:55;14.57;;;3.20;;
79790;SDS011;69278;52.220;5.172;2023-04-25T00:19:22;16.52;;;3.53;;
79790;SDS011;69278;52.220;5.172;2023-04-25T00:21:48;13.20;;;3.43;;
79790;SDS011;69278;52.220;5.172;2023-04-25T00:24:15;13.13;;;3.25;;
79790;SDS011;69278;52.220;5.172;2023-04-25T00:26:41;12.98;;;3.15;;
79790;SDS011;69278;52.220;5.172;2023-04-25T00:29:11;13.35;;;3.28;;
79790;SDS011;69278;52.220;5.172;2023-04-25T00:31:37;11.95;;;3.05;;
79790;SDS011;69278;52.220;5.172;2023-04-25T00:34:04;14.13;;;3.40;;
79790;SDS011;69278;52.220;5.172;2023-04-25T00:36:30;12.23;;;3.33;;
79790;SDS011;69278;52.220;5.172;2023-04-25T00:38:57;12.18;;;3.45;;
79790;SDS011;69278;52.220;5.172;2023-04-25T00:41:25;14.40;;;3.28;;
79790;SDS011;69278;52.220;5.172;2023-04-25T00:43:52;14.07;;;3.30;;
79790;SDS011;69278;52.220;5.172;2023-04-25T00:46:20;16.13;;;2.90;;
79790;SDS011;69278;52.220;5.172;2023-04-25T00:48:47;13.10;;;3.03;;
79790;SDS011;69278;52.220;5.172;2023-04-25T00:51:14;13.20;;;3.20;;
79790;SDS011;69278;52.220;5.172;2023-04-25T00:53:44;13.20;;;2.97;;
79790;SDS011;69278;52.220;5.172;2023-04-25T00:56:11;13.82;;;3.08;;
79790;SDS011;69278;52.220;5.172;2023-04-25T00:58:38;11.73;;;3.27;;
79790;SDS011;69278;52.220;5.172;2023-04-25T01:01:06;10.60;;;2.70;;
79790;SDS011;69278;52.220;5.172;2023-04-25T01:03:34;14.68;;;2.83;;
79790;SDS011;69278;52.220;5.172;2023-04-25T01:06:07;10.57;;;2.60;;
79790;SDS011;69278;52.220;5.172;2023-04-25T01:08:36;10.05;;;2.70;;
79790;SDS011;69278;52.220;5.172;2023-04-25T01:11:04;12.53;;;2.73;;
79790;SDS011;69278;52.220;5.172;2023-04-25T01:13:31;11.15;;;2.63;;
79790;SDS011;69278;52.220;5.172;2023-04-25T01:15:59;11.43;;;3.15;;
79790;SDS011;69278;52.220;5.172;2023-04-25T01:18:26;10.32;;;2.70;;
79790;SDS011;69278;52.220;5.172;2023-04-25T01:20:52;10.73;;;2.75;;
79790;SDS011;69278;52.220;5.172;2023-04-25T01:23:20;12.93;;;2.77;;
79790;SDS011;69278;52.220;5.172;2023-04-25T01:25:48;13.05;;;2.83;;
79790;SDS011;69278;52.220;5.172;2023-04-25T01:28:15;13.02;;;2.97;;
79790;SDS011;69278;52.220;5.172;2023-04-25T01:30:42;13.13;;;2.78;;
79790;SDS011;69278;52.220;5.172;2023-04-25T01:33:09;9.88;;;2.92;;
79790;SDS011;69278;52.220;5.172;2023-04-25T01:35:37;17.47;;;2.80;;
79790;SDS011;69278;52.220;5.172;2023-04-25T01:38:03;11.77;;;3.08;;
79790;SDS011;69278;52.220;5.172;2023-04-25T01:40:30;10.95;;;2.97;;
79790;SDS011;69278;52.220;5.172;2023-04-25T01:42:58;12.25;;;3.03;;
79790;SDS011;69278;52.220;5.172;2023-04-25T01:45:24;11.77;;;2.72;;
79790;SDS011;69278;52.220;5.172;2023-04-25T01:47:51;11.97;;;2.93;;
79790;SDS011;69278;52.220;5.172;2023-04-25T01:50:18;12.88;;;2.90;;
79790;SDS011;69278;52.220;5.172;2023-04-25T01:52:44;13.48;;;2.75;;
79790;SDS011;69278;52.220;5.172;2023-04-25T01:55:11;12.40;;;3.42;;
79790;SDS011;69278;52.220;5.172;2023-04-25T01:57:38;16.75;;;3.35;;
79790;SDS011;69278;52.220;5.172;2023-04-25T02:00:05;10.93;;;3.07;;
79790;SDS011;69278;52.220;5.172;2023-04-25T02:02:33;13.35;;;3.03;;
79790;SDS011;69278;52.220;5.172;2023-04-25T02:04:59;12.27;;;2.90;;
79790;SDS011;69278;52.220;5.172;2023-04-25T02:07:26;12.55;;;3.25;;
79790;SDS011;69278;52.220;5.172;2023-04-25T02:09:53;14.15;;;3.22;;
79790;SDS011;69278;52.220;5.172;2023-04-25T02:12:19;11.47;;;3.27;;
79790;SDS011;69278;52.220;5.172;2023-04-25T02:14:45;12.05;;;2.92;;
79790;SDS011;69278;52.220;5.172;2023-04-25T02:17:12;12.52;;;3.38;;
79790;SDS011;69278;52.220;5.172;2023-04-25T02:19:39;11.43;;;2.95;;
79790;SDS011;69278;52.220;5.172;2023-04-25T02:22:05;10.25;;;3.03;;
79790;SDS011;69278;52.220;5.172;2023-04-25T02:24:32;10.37;;;3.10;;
79790;SDS011;69278;52.220;5.172;2023-04-25T02:26:59;14.13;;;3.47;;
79790;SDS011;69278;52.220;5.172;2023-04-25T02:29:26;11.30;;;3.40;;
79790;SDS011;69278;52.220;5.172;2023-04-25T02:31:53;12.20;;;3.58;;
79790;SDS011;69278;52.220;5.172;2023-04-25T02:34:20;17.05;;;4.30;;
79790;SDS011;69278;52.220;5.172;2023-04-25T02:36:47;12.00;;;3.57;;
79790;SDS011;69278;52.220;5.172;2023-04-25T02:39:15;14.98;;;4.00;;
79790;SDS011;69278;52.220;5.172;2023-04-25T02:41:42;12.15;;;3.30;;
79790;SDS011;69278;52.220;5.172;2023-04-25T02:44:08;10.75;;;3.50;;
79790;SDS011;69278;52.220;5.172;2023-04-25T02:46:35;10.07;;;3.35;;
79790;SDS011;69278;52.220;5.172;2023-04-25T02:49:05;11.97;;;3.37;;
79790;SDS011;69278;52.220;5.172;2023-04-25T02:51:32;9.90;;;3.33;;
79790;SDS011;69278;52.220;5.172;2023-04-25T02:53:58;12.18;;;3.40;;
79790;SDS011;69278;52.220;5.172;2023-04-25T02:56:25;13.02;;;3.33;;
79790;SDS011;69278;52.220;5.172;2023-04-25T02:58:52;9.85;;;3.40;;
79790;SDS011;69278;52.220;5.172;2023-04-25T03:01:19;11.93;;;3.23;;
79790;SDS011;69278;52.220;5.172;2023-04-25T03:03:46;8.77;;;2.78;;
79790;SDS011;69278;52.220;5.172;2023-04-25T03:06:13;11.05;;;3.03;;
79790;SDS011;69278;52.220;5.172;2023-04-25T03:08:40;10.50;;;3.10;;
79790;SDS011;69278;52.220;5.172;2023-04-25T03:11:06;10.98;;;3.00;;
79790;SDS011;69278;52.220;5.172;2023-04-25T03:13:33;10.03;;;2.60;;
79790;SDS011;69278;52.220;5.172;2023-04-25T03:15:59;11.20;;;2.40;;
79790;SDS011;69278;52.220;5.172;2023-04-25T03:18:27;8.68;;;2.70;;
79790;SDS011;69278;52.220;5.172;2023-04-25T03:20:53;11.18;;;2.63;;
79790;SDS011;69278;52.220;5.172;2023-04-25T03:23:20;7.18;;;2.20;;
79790;SDS011;69278;52.220;5.172;2023-04-25T03:25:47;12.43;;;2.30;;
79790;SDS011;69278;52.220;5.172;2023-04-25T03:28:13;9.10;;;2.50;;
79790;SDS011;69278;52.220;5.172;2023-04-25T03:30:40;8.35;;;2.38;;
79790;SDS011;69278;52.220;5.172;2023-04-25T03:33:06;8.60;;;2.10;;
79790;SDS011;69278;52.220;5.172;2023-04-25T03:35:33;9.90;;;2.30;;
79790;SDS011;69278;52.220;5.172;2023-04-25T03:37:59;12.53;;;2.67;;
79790;SDS011;69278;52.220;5.172;2023-04-25T03:40:26;11.23;;;2.42;;
79790;SDS011;69278;52.220;5.172;2023-04-25T03:42:52;9.10;;;2.00;;
79790;SDS011;69278;52.220;5.172;2023-04-25T03:45:19;8.05;;;2.22;;
79790;SDS011;69278;52.220;5.172;2023-04-25T03:47:45;11.77;;;2.42;;
79790;SDS011;69278;52.220;5.172;2023-04-25T03:50:12;14.27;;;3.90;;
79790;SDS011;69278;52.220;5.172;2023-04-25T03:52:38;9.50;;;2.17;;
79790;SDS011;69278;52.220;5.172;2023-04-25T03:55:05;9.98;;;2.10;;
79790;SDS011;69278;52.220;5.172;2023-04-25T03:57:32;13.10;;;2.50;;
79790;SDS011;69278;52.220;5.172;2023-04-25T03:59:58;8.02;;;1.90;;
79790;SDS011;69278;52.220;5.172;2023-04-25T04:02:25;9.07;;;2.10;;
79790;SDS011;69278;52.220;5.172;2023-04-25T04:04:51;5.90;;;1.85;;
79790;SDS011;69278;52.220;5.172;2023-04-25T04:07:18;9.63;;;1.92;;
79790;SDS011;69278;52.220;5.172;2023-04-25T04:09:45;8.07;;;2.00;;
79790;SDS011;69278;52.220;5.172;2023-04-25T04:12:11;6.78;;;1.92;;
79790;SDS011;69278;52.220;5.172;2023-04-25T04:14:38;7.30;;;1.63;;
79790;SDS011;69278;52.220;5.172;2023-04-25T04:17:04;9.40;;;2.17;;
79790;SDS011;69278;52.220;5.172;2023-04-25T04:19:32;7.88;;;1.90;;
79790;SDS011;69278;52.220;5.172;2023-04-25T04:21:58;6.30;;;1.77;;
79790;SDS011;69278;52.220;5.172;2023-04-25T04:24:25;6.78;;;1.80;;
79790;SDS011;69278;52.220;5.172;2023-04-25T04:26:51;5.03;;;1.87;;
79790;SDS011;69278;52.220;5.172;2023-04-25T04:29:18;7.15;;;2.22;;
79790;SDS011;69278;52.220;5.172;2023-04-25T04:31:48;6.95;;;2.00;;
79790;SDS011;69278;52.220;5.172;2023-04-25T04:34:16;7.47;;;2.03;;
79790;SDS011;69278;52.220;5.172;2023-04-25T04:36:44;8.63;;;2.10;;
79790;SDS011;69278;52.220;5.172;2023-04-25T04:39:12;6.37;;;2.10;;
79790;SDS011;69278;52.220;5.172;2023-04-25T04:41:39;6.70;;;2.08;;
79790;SDS011;69278;52.220;5.172;2023-04-25T04:44:06;7.75;;;1.90;;
79790;SDS011;69278;52.220;5.172;2023-04-25T04:46:35;9.60;;;2.15;;
79790;SDS011;69278;52.220;5.172;2023-04-25T04:49:07;8.63;;;1.80;;
79790;SDS011;69278;52.220;5.172;2023-04-25T04:51:34;5.93;;;1.90;;
79790;SDS011;69278;52.220;5.172;2023-04-25T04:54:01;9.50;;;2.15;;
79790;SDS011;69278;52.220;5.172;2023-04-25T04:56:29;8.65;;;1.92;;
79790;SDS011;69278;52.220;5.172;2023-04-25T04:58:57;6.50;;;1.75;;
79790;SDS011;69278;52.220;5.172;2023-04-25T05:01:24;7.03;;;1.77;;
79790;SDS011;69278;52.220;5.172;2023-04-25T05:03:52;6.90;;;1.60;;
79790;SDS011;69278;52.220;5.172;2023-04-25T05:06:19;6.50;;;1.67;;
79790;SDS011;69278;52.220;5.172;2023-04-25T05:08:46;7.53;;;1.70;;
79790;SDS011;69278;52.220;5.172;2023-04-25T05:11:12;5.82;;;1.30;;
79790;SDS011;69278;52.220;5.172;2023-04-25T05:13:39;7.70;;;1.50;;
79790;SDS011;69278;52.220;5.172;2023-04-25T05:16:05;7.63;;;1.20;;
79790;SDS011;69278;52.220;5.172;2023-04-25T05:18:32;6.20;;;1.80;;
79790;SDS011;69278;52.220;5.172;2023-04-25T05:20:58;7.30;;;2.00;;
79790;SDS011;69278;52.220;5.172;2023-04-25T05:23:25;4.80;;;1.58;;
79790;SDS011;69278;52.220;5.172;2023-04-25T05:25:53;5.55;;;1.70;;
79790;SDS011;69278;52.220;5.172;2023-04-25T05:28:20;5.73;;;1.70;;
79790;SDS011;69278;52.220;5.172;2023-04-25T05:30:47;4.95;;;1.70;;
79790;SDS011;69278;52.220;5.172;2023-04-25T05:33:14;8.32;;;2.00;;
79790;SDS011;69278;52.220;5.172;2023-04-25T05:35:41;5.68;;;1.50;;
79790;SDS011;69278;52.220;5.172;2023-04-25T05:38:08;11.13;;;1.50;;
79790;SDS011;69278;52.220;5.172;2023-04-25T05:40:34;5.47;;;2.10;;
79790;SDS011;69278;52.220;5.172;2023-04-25T05:43:01;5.15;;;1.58;;
79790;SDS011;69278;52.220;5.172;2023-04-25T05:45:27;6.30;;;1.48;;
79790;SDS011;69278;52.220;5.172;2023-04-25T05:47:54;7.00;;;1.67;;
79790;SDS011;69278;52.220;5.172;2023-04-25T05:50:20;8.10;;;1.90;;
79790;SDS011;69278;52.220;5.172;2023-04-25T05:52:47;5.50;;;1.57;;
79790;SDS011;69278;52.220;5.172;2023-04-25T05:55:13;6.70;;;1.52;;
79790;SDS011;69278;52.220;5.172;2023-04-25T05:57:41;7.43;;;1.65;;
79790;SDS011;69278;52.220;5.172;2023-04-25T06:00:08;6.78;;;1.55;;
79790;SDS011;69278;52.220;5.172;2023-04-25T06:02:35;5.50;;;1.90;;
79790;SDS011;69278;52.220;5.172;2023-04-25T06:05:02;4.63;;;1.40;;
79790;SDS011;69278;52.220;5.172;2023-04-25T06:07:29;7.65;;;1.63;;
79790;SDS011;69278;52.220;5.172;2023-04-25T06:09:57;7.00;;;1.60;;
79790;SDS011;69278;52.220;5.172;2023-04-25T06:12:23;4.47;;;1.58;;
79790;SDS011;69278;52.220;5.172;2023-04-25T06:14:50;4.50;;;1.48;;
79790;SDS011;69278;52.220;5.172;2023-04-25T06:17:16;5.60;;;1.63;;
79790;SDS011;69278;52.220;5.172;2023-04-25T06:19:43;6.38;;;1.52;;
79790;SDS011;69278;52.220;5.172;2023-04-25T06:22:09;8.45;;;1.67;;
79790;SDS011;69278;52.220;5.172;2023-04-25T06:24:36;6.22;;;1.52;;
79790;SDS011;69278;52.220;5.172;2023-04-25T06:27:02;7.03;;;1.70;;
79790;SDS011;69278;52.220;5.172;2023-04-25T06:29:29;6.53;;;1.67;;
79790;SDS011;69278;52.220;5.172;2023-04-25T06:31:55;6.85;;;1.60;;
79790;SDS011;69278;52.220;5.172;2023-04-25T06:34:23;6.45;;;1.60;;
79790;SDS011;69278;52.220;5.172;2023-04-25T06:36:50;6.70;;;1.65;;
79790;SDS011;69278;52.220;5.172;2023-04-25T06:39:18;5.20;;;1.40;;
79790;SDS011;69278;52.220;5.172;2023-04-25T06:41:46;7.27;;;1.63;;
79790;SDS011;69278;52.220;5.172;2023-04-25T06:44:12;6.93;;;1.77;;
79790;SDS011;69278;52.220;5.172;2023-04-25T06:46:39;4.70;;;1.50;;
79790;SDS011;69278;52.220;5.172;2023-04-25T06:49:05;5.05;;;1.50;;
79790;SDS011;69278;52.220;5.172;2023-04-25T06:51:32;5.28;;;1.80;;
79790;SDS011;69278;52.220;5.172;2023-04-25T06:53:58;6.60;;;1.50;;
79790;SDS011;69278;52.220;5.172;2023-04-25T06:56:25;5.30;;;1.60;;
79790;SDS011;69278;52.220;5.172;2023-04-25T06:58:51;7.07;;;1.70;;
79790;SDS011;69278;52.220;5.172;2023-04-25T07:01:18;6.35;;;1.60;;
79790;SDS011;69278;52.220;5.172;2023-04-25T07:03:45;7.25;;;1.50;;
79790;SDS011;69278;52.220;5.172;2023-04-25T07:06:11;8.27;;;1.70;;
79790;SDS011;69278;52.220;5.172;2023-04-25T07:08:38;5.20;;;1.50;;
79790;SDS011;69278;52.220;5.172;2023-04-25T07:11:04;10.13;;;1.75;;
79790;SDS011;69278;52.220;5.172;2023-04-25T07:13:31;8.95;;;2.03;;
79790;SDS011;69278;52.220;5.172;2023-04-25T07:15:58;6.28;;;1.52;;
79790;SDS011;69278;52.220;5.172;2023-04-25T07:18:25;7.53;;;1.40;;
79790;SDS011;69278;52.220;5.172;2023-04-25T07:20:52;6.40;;;1.30;;
79790;SDS011;69278;52.220;5.172;2023-04-25T07:23:18;6.70;;;1.63;;
79790;SDS011;69278;52.220;5.172;2023-04-25T07:25:45;5.57;;;1.13;;
79790;SDS011;69278;52.220;5.172;2023-04-25T07:28:11;7.93;;;1.77;;
79790;SDS011;69278;52.220;5.172;2023-04-25T07:30:38;6.13;;;1.50;;
79790;SDS011;69278;52.220;5.172;2023-04-25T07:33:04;6.72;;;1.40;;
79790;SDS011;69278;52.220;5.172;2023-04-25T07:35:31;5.38;;;1.30;;
79790;SDS011;69278;52.220;5.172;2023-04-25T07:37:58;4.47;;;1.20;;
79790;SDS011;69278;52.220;5.172;2023-04-25T07:40:25;5.32;;;1.42;;
79790;SDS011;69278;52.220;5.172;2023-04-25T07:42:51;6.47;;;1.23;;
79790;SDS011;69278;52.220;5.172;2023-04-25T07:45:18;8.63;;;1.35;;
79790;SDS011;69278;52.220;5.172;2023-04-25T07:47:44;6.95;;;1.50;;
79790;SDS011;69278;52.220;5.172;2023-04-25T07:50:11;7.65;;;1.45;;
79790;SDS011;69278;52.220;5.172;2023-04-25T07:52:37;8.98;;;1.73;;
79790;SDS011;69278;52.220;5.172;2023-04-25T07:55:04;8.27;;;1.40;;
79790;SDS011;69278;52.220;5.172;2023-04-25T07:57:31;9.35;;;1.60;;
79790;SDS011;69278;52.220;5.172;2023-04-25T07:59:57;7.20;;;1.48;;
79790;SDS011;69278;52.220;5.172;2023-04-25T08:02:24;5.18;;;1.50;;
79790;SDS011;69278;52.220;5.172;2023-04-25T08:04:54;4.45;;;1.13;;
79790;SDS011;69278;52.220;5.172;2023-04-25T08:07:21;7.10;;;1.50;;
79790;SDS011;69278;52.220;5.172;2023-04-25T08:09:48;5.95;;;1.13;;
79790;SDS011;69278;52.220;5.172;2023-04-25T08:12:14;9.48;;;1.30;;
79790;SDS011;69278;52.220;5.172;2023-04-25T08:14:41;6.88;;;1.33;;
79790;SDS011;69278;52.220;5.172;2023-04-25T08:17:07;6.15;;;1.20;;
79790;SDS011;69278;52.220;5.172;2023-04-25T08:19:34;6.13;;;1.40;;
79790;SDS011;69278;52.220;5.172;2023-04-25T08:22:00;7.95;;;1.23;;
79790;SDS011;69278;52.220;5.172;2023-04-25T08:24:27;7.50;;;1.25;;
79790;SDS011;69278;52.220;5.172;2023-04-25T08:26:53;4.70;;;1.35;;
79790;SDS011;69278;52.220;5.172;2023-04-25T08:29:21;9.10;;;1.80;;
79790;SDS011;69278;52.220;5.172;2023-04-25T08:31:50;8.70;;;1.50;;
79790;SDS011;69278;52.220;5.172;2023-04-25T08:34:16;7.05;;;1.50;;
79790;SDS011;69278;52.220;5.172;2023-04-25T08:36:43;8.82;;;1.60;;
79790;SDS011;69278;52.220;5.172;2023-04-25T08:39:09;7.78;;;1.08;;
79790;SDS011;69278;52.220;5.172;2023-04-25T08:41:36;4.03;;;1.30;;
79790;SDS011;69278;52.220;5.172;2023-04-25T08:44:03;6.67;;;1.20;;
79790;SDS011;69278;52.220;5.172;2023-04-25T08:46:31;5.30;;;0.95;;
79790;SDS011;69278;52.220;5.172;2023-04-25T08:49:00;4.30;;;1.20;;
79790;SDS011;69278;52.220;5.172;2023-04-25T08:51:27;4.55;;;1.13;;
79790;SDS011;69278;52.220;5.172;2023-04-25T08:54:08;5.07;;;0.90;;
79790;SDS011;69278;52.220;5.172;2023-04-25T08:56:57;4.40;;;0.90;;
79790;SDS011;69278;52.220;5.172;2023-04-25T08:59:28;3.75;;;1.10;;
79790;SDS011;69278;52.220;5.172;2023-04-25T09:01:54;5.90;;;1.50;;
79790;SDS011;69278;52.220;5.172;2023-04-25T09:04:21;5.15;;;1.13;;
79790;SDS011;69278;52.220;5.172;2023-04-25T09:06:47;3.40;;;1.08;;
79790;SDS011;69278;52.220;5.172;2023-04-25T09:09:14;5.83;;;1.07;;
79790;SDS011;69278;52.220;5.172;2023-04-25T09:11:41;4.28;;;1.00;;
79790;SDS011;69278;52.220;5.172;2023-04-25T09:19:23;5.10;;;1.10;;
79790;SDS011;69278;52.220;5.172;2023-04-25T09:22:05;7.47;;;1.17;;
79790;SDS011;69278;52.220;5.172;2023-04-25T09:27:07;4.75;;;1.52;;
79790;SDS011;69278;52.220;5.172;2023-04-25T09:29:37;6.00;;;1.00;;
79790;SDS011;69278;52.220;5.172;2023-04-25T09:32:21;4.72;;;1.20;;
79790;SDS011;69278;52.220;5.172;2023-04-25T09:34:50;4.13;;;1.10;;
79790;SDS011;69278;52.220;5.172;2023-04-25T09:37:20;3.60;;;1.10;;
79790;SDS011;69278;52.220;5.172;2023-04-25T09:39:53;3.08;;;1.10;;
79790;SDS011;69278;52.220;5.172;2023-04-25T09:42:26;4.68;;;0.93;;
79790;SDS011;69278;52.220;5.172;2023-04-25T09:44:55;5.50;;;1.17;;
79790;SDS011;69278;52.220;5.172;2023-04-25T09:47:23;5.37;;;0.83;;
79790;SDS011;69278;52.220;5.172;2023-04-25T09:49:51;4.85;;;1.17;;
79790;SDS011;69278;52.220;5.172;2023-04-25T09:52:20;3.65;;;0.90;;
79790;SDS011;69278;52.220;5.172;2023-04-25T09:54:50;2.22;;;0.77;;
79790;SDS011;69278;52.220;5.172;2023-04-25T10:02:14;2.50;;;0.95;;
79790;SDS011;69278;52.220;5.172;2023-04-25T10:04:45;3.80;;;1.00;;
79790;SDS011;69278;52.220;5.172;2023-04-25T10:07:14;3.55;;;1.20;;
79790;SDS011;69278;52.220;5.172;2023-04-25T10:09:43;4.43;;;1.10;;
79790;SDS011;69278;52.220;5.172;2023-04-25T10:12:13;4.80;;;0.90;;
79790;SDS011;69278;52.220;5.172;2023-04-25T10:14:40;3.80;;;1.08;;
79790;SDS011;69278;52.220;5.172;2023-04-25T10:17:10;4.80;;;1.20;;
79790;SDS011;69278;52.220;5.172;2023-04-25T10:19:37;4.25;;;1.35;;
79790;SDS011;69278;52.220;5.172;2023-04-25T10:22:14;3.65;;;1.10;;
79790;SDS011;69278;52.220;5.172;2023-04-25T10:24:46;4.13;;;1.10;;
79790;SDS011;69278;52.220;5.172;2023-04-25T10:27:13;4.70;;;0.98;;
79790;SDS011;69278;52.220;5.172;2023-04-25T10:29:40;4.30;;;1.30;;
79790;SDS011;69278;52.220;5.172;2023-04-25T10:32:09;3.95;;;1.30;;
79790;SDS011;69278;52.220;5.172;2023-04-25T10:34:42;5.18;;;1.17;;
79790;SDS011;69278;52.220;5.172;2023-04-25T10:37:13;5.53;;;1.07;;
79790;SDS011;69278;52.220;5.172;2023-04-25T10:39:40;4.85;;;1.20;;
79790;SDS011;69278;52.220;5.172;2023-04-25T10:42:09;3.72;;;1.08;;
79790;SDS011;69278;52.220;5.172;2023-04-25T10:44:37;5.28;;;1.05;;
79790;SDS011;69278;52.220;5.172;2023-04-25T10:47:06;3.42;;;1.25;;
79790;SDS011;69278;52.220;5.172;2023-04-25T10:49:34;2.50;;;1.00;;
79790;SDS011;69278;52.220;5.172;2023-04-25T10:54:51;4.18;;;1.27;;
79790;SDS011;69278;52.220;5.172;2023-04-25T10:57:26;4.47;;;1.00;;
79790;SDS011;69278;52.220;5.172;2023-04-25T10:59:52;4.40;;;1.10;;
79790;SDS011;69278;52.220;5.172;2023-04-25T11:02:19;4.10;;;1.20;;
79790;SDS011;69278;52.220;5.172;2023-04-25T11:04:46;5.75;;;1.20;;
79790;SDS011;69278;52.220;5.172;2023-04-25T11:07:19;3.60;;;1.30;;
79790;SDS011;69278;52.220;5.172;2023-04-25T11:10:01;4.65;;;1.10;;
79790;SDS011;69278;52.220;5.172;2023-04-25T11:12:30;3.92;;;1.27;;
79790;SDS011;69278;52.220;5.172;2023-04-25T11:15:05;3.13;;;0.93;;
79790;SDS011;69278;52.220;5.172;2023-04-25T11:17:33;5.05;;;1.10;;
79790;SDS011;69278;52.220;5.172;2023-04-25T11:20:00;5.13;;;1.20;;
79790;SDS011;69278;52.220;5.172;2023-04-25T11:22:27;4.30;;;1.15;;
79790;SDS011;69278;52.220;5.172;2023-04-25T11:24:54;4.82;;;1.20;;
79790;SDS011;69278;52.220;5.172;2023-04-25T11:27:20;5.03;;;1.10;;
79790;SDS011;69278;52.220;5.172;2023-04-25T11:29:47;3.20;;;1.20;;
79790;SDS011;69278;52.220;5.172;2023-04-25T11:32:15;4.13;;;1.00;;
79790;SDS011;69278;52.220;5.172;2023-04-25T11:34:44;4.57;;;1.20;;
79790;SDS011;69278;52.220;5.172;2023-04-25T11:37:13;3.95;;;1.30;;
79790;SDS011;69278;52.220;5.172;2023-04-25T11:39:43;3.37;;;1.17;;
79790;SDS011;69278;52.220;5.172;2023-04-25T11:42:12;4.05;;;1.00;;
79790;SDS011;69278;52.220;5.172;2023-04-25T11:44:39;3.30;;;1.50;;
79790;SDS011;69278;52.220;5.172;2023-04-25T11:47:06;4.97;;;1.20;;
79790;SDS011;69278;52.220;5.172;2023-04-25T11:49:33;3.65;;;1.17;;
79790;SDS011;69278;52.220;5.172;2023-04-25T11:52:01;3.50;;;0.97;;
79790;SDS011;69278;52.220;5.172;2023-04-25T11:54:27;3.78;;;1.40;;
79790;SDS011;69278;52.220;5.172;2023-04-25T11:56:54;5.43;;;1.30;;
79790;SDS011;69278;52.220;5.172;2023-04-25T11:59:23;6.47;;;1.50;;
79790;SDS011;69278;52.220;5.172;2023-04-25T12:01:51;5.03;;;1.45;;
79790;SDS011;69278;52.220;5.172;2023-04-25T12:06:47;8.63;;;1.95;;
79790;SDS011;69278;52.220;5.172;2023-04-25T12:09:19;6.38;;;1.50;;
79790;SDS011;69278;52.220;5.172;2023-04-25T12:11:57;5.25;;;1.10;;
79790;SDS011;69278;52.220;5.172;2023-04-25T12:14:25;4.25;;;1.42;;
79790;SDS011;69278;52.220;5.172;2023-04-25T12:16:57;3.73;;;1.10;;
79790;SDS011;69278;52.220;5.172;2023-04-25T12:19:25;4.57;;;1.30;;
79790;SDS011;69278;52.220;5.172;2023-04-25T12:21:52;6.20;;;1.30;;
79790;SDS011;69278;52.220;5.172;2023-04-25T12:24:25;3.53;;;1.27;;
79790;SDS011;69278;52.220;5.172;2023-04-25T12:26:58;3.55;;;1.52;;
79790;SDS011;69278;52.220;5.172;2023-04-25T12:29:26;3.77;;;1.17;;
79790;SDS011;69278;52.220;5.172;2023-04-25T12:32:03;3.15;;;1.30;;
79790;SDS011;69278;52.220;5.172;2023-04-25T12:34:31;3.50;;;1.30;;
79790;SDS011;69278;52.220;5.172;2023-04-25T12:36:58;4.97;;;1.10;;
79790;SDS011;69278;52.220;5.172;2023-04-25T12:39:24;4.97;;;1.30;;
79790;SDS011;69278;52.220;5.172;2023-04-25T12:41:51;5.60;;;1.10;;
79790;SDS011;69278;52.220;5.172;2023-04-25T12:44:20;5.40;;;1.17;;
79790;SDS011;69278;52.220;5.172;2023-04-25T12:46:47;6.07;;;1.33;;
79790;SDS011;69278;52.220;5.172;2023-04-25T12:49:14;4.32;;;1.48;;
79790;SDS011;69278;52.220;5.172;2023-04-25T12:51:44;2.78;;;1.00;;
79790;SDS011;69278;52.220;5.172;2023-04-25T12:54:11;4.63;;;1.07;;
79790;SDS011;69278;52.220;5.172;2023-04-25T12:56:37;4.35;;;1.00;;
79790;SDS011;69278;52.220;5.172;2023-04-25T12:59:04;3.85;;;1.20;;
79790;SDS011;69278;52.220;5.172;2023-04-25T13:01:31;4.10;;;1.00;;
79790;SDS011;69278;52.220;5.172;2023-04-25T13:04:01;3.28;;;1.17;;
79790;SDS011;69278;52.220;5.172;2023-04-25T13:06:28;4.60;;;1.20;;
79790;SDS011;69278;52.220;5.172;2023-04-25T13:08:56;2.55;;;1.15;;
79790;SDS011;69278;52.220;5.172;2023-04-25T13:11:22;5.57;;;1.15;;
79790;SDS011;69278;52.220;5.172;2023-04-25T13:13:49;6.82;;;1.10;;
79790;SDS011;69278;52.220;5.172;2023-04-25T13:16:15;3.13;;;1.10;;
79790;SDS011;69278;52.220;5.172;2023-04-25T13:18:42;4.63;;;0.90;;
79790;SDS011;69278;52.220;5.172;2023-04-25T13:21:09;5.65;;;1.10;;
79790;SDS011;69278;52.220;5.172;2023-04-25T13:23:37;7.43;;;1.50;;
79790;SDS011;69278;52.220;5.172;2023-04-25T13:26:04;4.75;;;1.13;;
79790;SDS011;69278;52.220;5.172;2023-04-25T13:28:30;4.50;;;1.40;;
79790;SDS011;69278;52.220;5.172;2023-04-25T13:30:56;3.43;;;1.50;;
79790;SDS011;69278;52.220;5.172;2023-04-25T13:33:24;6.03;;;1.50;;
79790;SDS011;69278;52.220;5.172;2023-04-25T13:35:50;4.70;;;1.45;;
79790;SDS011;69278;52.220;5.172;2023-04-25T13:38:20;4.30;;;1.30;;
79790;SDS011;69278;52.220;5.172;2023-04-25T13:40:47;5.78;;;1.60;;
79790;SDS011;69278;52.220;5.172;2023-04-25T13:43:15;7.20;;;1.40;;
79790;SDS011;69278;52.220;5.172;2023-04-25T13:45:41;6.70;;;1.40;;
79790;SDS011;69278;52.220;5.172;2023-04-25T13:48:08;3.60;;;1.35;;
79790;SDS011;69278;52.220;5.172;2023-04-25T13:50:34;3.90;;;1.30;;
79790;SDS011;69278;52.220;5.172;2023-04-25T13:53:01;4.95;;;1.20;;
79790;SDS011;69278;52.220;5.172;2023-04-25T13:55:27;3.80;;;1.10;;
79790;SDS011;69278;52.220;5.172;2023-04-25T13:57:54;3.28;;;1.20;;
79790;SDS011;69278;52.220;5.172;2023-04-25T14:00:20;3.63;;;1.33;;
79790;SDS011;69278;52.220;5.172;2023-04-25T14:02:47;6.30;;;1.70;;
79790;SDS011;69278;52.220;5.172;2023-04-25T14:05:16;6.43;;;1.65;;
79790;SDS011;69278;52.220;5.172;2023-04-25T14:07:42;5.57;;;1.50;;
79790;SDS011;69278;52.220;5.172;2023-04-25T14:10:09;5.85;;;1.33;;
79790;SDS011;69278;52.220;5.172;2023-04-25T14:12:35;5.13;;;1.40;;
79790;SDS011;69278;52.220;5.172;2023-04-25T14:15:02;5.38;;;1.60;;
79790;SDS011;69278;52.220;5.172;2023-04-25T14:17:29;4.88;;;1.60;;
79790;SDS011;69278;52.220;5.172;2023-04-25T14:19:56;4.60;;;1.50;;
79790;SDS011;69278;52.220;5.172;2023-04-25T14:22:22;2.63;;;1.17;;
79790;SDS011;69278;52.220;5.172;2023-04-25T14:24:49;3.38;;;1.30;;
79790;SDS011;69278;52.220;5.172;2023-04-25T14:27:15;4.45;;;1.30;;
79790;SDS011;69278;52.220;5.172;2023-04-25T14:29:41;3.50;;;1.20;;
79790;SDS011;69278;52.220;5.172;2023-04-25T14:32:08;3.47;;;1.20;;
79790;SDS011;69278;52.220;5.172;2023-04-25T14:34:35;5.00;;;1.33;;
79790;SDS011;69278;52.220;5.172;2023-04-25T14:37:01;5.65;;;1.00;;
79790;SDS011;69278;52.220;5.172;2023-04-25T14:39:28;4.22;;;1.10;;
79790;SDS011;69278;52.220;5.172;2023-04-25T14:41:54;4.30;;;1.23;;
79790;SDS011;69278;52.220;5.172;2023-04-25T14:44:22;2.50;;;1.00;;
79790;SDS011;69278;52.220;5.172;2023-04-25T14:46:48;3.15;;;1.33;;
79790;SDS011;69278;52.220;5.172;2023-04-25T14:49:17;3.83;;;1.30;;
79790;SDS011;69278;52.220;5.172;2023-04-25T14:51:44;2.58;;;1.17;;
79790;SDS011;69278;52.220;5.172;2023-04-25T14:54:10;5.55;;;1.23;;
79790;SDS011;69278;52.220;5.172;2023-04-25T14:56:38;4.10;;;1.40;;
79790;SDS011;69278;52.220;5.172;2023-04-25T14:59:04;4.38;;;1.20;;
79790;SDS011;69278;52.220;5.172;2023-04-25T15:01:30;3.47;;;1.30;;
79790;SDS011;69278;52.220;5.172;2023-04-25T15:03:57;3.55;;;1.20;;
79790;SDS011;69278;52.220;5.172;2023-04-25T15:06:25;5.55;;;1.30;;